Time;durP1;ratioP1;P1;durP2;ratioP2;P2;SDS_P1;SDS_P2;PMS_P1;PMS_P2;Temp;Humidity;BMP_temperature;BMP_pressure;BME280_temperature;BME280_humidity;BME280_pressure;Samples;Min_cycle;Max_cycle;Signal;HPM_P1;HPM_P2
2024/04/11 00:01:10;;;;;;;12.33;4.53;;;7.30;43.70;;;;;;5509444;25;21080;-65
2024/04/11 00:03:36;;;;;;;16.03;5.33;;;7.20;51.10;;;;;;5525179;25;20467;-65
2024/04/11 00:06:05;;;;;;;5.60;4.13;;;7.10;51.00;;;;;;5507861;25;20465;-66
2024/04/11 00:08:31;;;;;;;6.40;4.20;;;6.90;51.20;;;;;;5512927;26;20893;-65
2024/04/11 00:10:59;;;;;;;9.87;3.90;;;6.90;51.30;;;;;;5509573;25;20456;-65
2024/04/11 00:13:25;;;;;;;9.83;3.77;;;7.10;48.40;;;;;;5525301;25;20299;-65
2024/04/11 00:15:57;;;;;;;11.50;4.10;;;7.20;43.30;;;;;;5510844;25;20945;-65
2024/04/11 00:18:24;;;;;;;8.20;3.70;;;7.30;42.60;;;;;;5510878;26;20452;-66
2024/04/11 00:20:53;;;;;;;11.13;3.90;;;7.30;42.50;;;;;;5524490;25;20516;-66
2024/04/11 00:23:19;;;;;;;11.87;4.10;;;7.20;42.50;;;;;;5488361;25;20503;-64
2024/04/11 00:25:55;;;;;;;6.83;3.77;;;7.20;43.90;;;;;;5516470;26;20440;-65
2024/04/11 00:28:22;;;;;;;8.23;4.00;;;7.20;43.70;;;;;;5524784;25;20879;-66
2024/04/11 00:30:50;;;;;;;9.03;4.23;;;7.10;49.20;;;;;;5524760;25;20512;-65
2024/04/11 00:33:19;;;;;;;13.87;5.50;;;7.10;51.00;;;;;;5525232;25;20512;-66
2024/04/11 00:35:49;;;;;;;8.87;5.17;;;7.00;50.90;;;;;;5526250;25;20527;-66
2024/04/11 00:38:16;;;;;;;21.53;6.73;;;7.00;51.00;;;;;;5520469;25;20481;-65
2024/04/11 00:40:44;;;;;;;10.80;7.47;;;6.90;55.10;;;;;;5487645;26;21060;-66
2024/04/11 00:43:10;;;;;;;12.63;10.70;;;6.90;59.10;;;;;;5487942;26;20561;-65
2024/04/11 00:45:45;;;;;;;11.90;10.80;;;6.80;59.10;;;;;;5498531;26;21016;-65
2024/04/11 00:48:12;;;;;;;18.83;17.63;;;6.70;59.10;;;;;;5525407;25;20257;-65
2024/04/11 00:50:44;;;;;;;18.37;16.60;;;6.60;59.00;;;;;;5514230;25;20466;-66
2024/04/11 00:53:11;;;;;;;20.53;19.33;;;6.50;59.00;;;;;;5492488;26;20523;-65
2024/04/11 00:55:41;;;;;;;15.80;14.40;;;6.60;59.00;;;;;;5524867;25;20520;-65
2024/04/11 00:58:08;;;;;;;16.70;15.20;;;6.70;59.10;;;;;;5490969;25;20989;-65
2024/04/11 01:00:37;;;;;;;11.53;10.30;;;6.80;59.20;;;;;;5488257;26;20450;-66
2024/04/11 01:03:03;;;;;;;9.10;8.20;;;6.90;59.20;;;;;;5490761;26;20457;-65
2024/04/11 01:05:34;;;;;;;9.00;6.50;;;7.00;59.80;;;;;;5491065;26;20803;-65
2024/04/11 01:08:07;;;;;;;8.97;6.37;;;7.00;59.20;;;;;;5490976;26;20465;-66
2024/04/11 01:10:37;;;;;;;8.67;7.43;;;7.00;59.10;;;;;;5515338;26;20524;-66
2024/04/11 01:13:05;;;;;;;8.73;7.80;;;7.00;59.30;;;;;;5527735;25;20456;-66
2024/04/11 01:15:34;;;;;;;8.50;7.80;;;7.00;59.20;;;;;;5527839;25;20516;-65
2024/04/11 01:18:00;;;;;;;11.60;8.00;;;6.90;59.20;;;;;;5527567;25;20517;-65
2024/04/11 01:20:29;;;;;;;8.97;7.87;;;6.90;59.10;;;;;;5526919;25;20464;-65
2024/04/11 01:22:57;;;;;;;10.47;8.67;;;6.90;59.10;;;;;;5512552;25;20465;-65
2024/04/11 01:25:29;;;;;;;11.83;9.40;;;6.80;58.90;;;;;;5513252;26;20854;-65
2024/04/11 01:27:55;;;;;;;10.80;10.00;;;6.70;59.10;;;;;;5527601;25;20500;-65
2024/04/11 01:30:24;;;;;;;12.07;10.90;;;6.80;59.20;;;;;;5526958;25;20509;-66
2024/04/11 01:32:49;;;;;;;13.63;8.70;;;6.80;59.10;;;;;;5498148;25;21015;-65
2024/04/11 01:35:19;;;;;;;10.03;4.00;;;6.90;59.20;;;;;;5511146;26;20476;-65
2024/04/11 01:37:46;;;;;;;8.17;3.83;;;7.10;51.10;;;;;;5527544;25;21042;-66
2024/04/11 01:40:18;;;;;;;11.40;3.60;;;7.10;51.00;;;;;;5527136;25;21007;-65
2024/04/11 01:42:44;;;;;;;8.10;3.40;;;7.20;51.30;;;;;;5499738;25;20485;-65
2024/04/11 01:45:13;;;;;;;9.00;4.03;;;7.20;43.30;;;;;;5490195;26;20512;-65
2024/04/11 01:47:40;;;;;;;8.03;3.50;;;7.20;42.40;;;;;;5490599;26;20860;-65
2024/04/11 01:50:10;;;;;;;7.77;3.77;;;7.20;44.90;;;;;;5489824;26;20577;-65
2024/04/11 01:52:35;;;;;;;8.10;4.30;;;7.20;42.50;;;;;;5490271;26;20465;-65
2024/04/11 01:55:04;;;;;;;8.60;3.70;;;7.20;42.50;;;;;;5490794;26;20533;-65
2024/04/11 01:57:32;;;;;;;9.10;3.80;;;7.40;42.60;;;;;;5499148;26;20279;-65
2024/04/11 02:00:01;;;;;;;6.27;2.20;;;7.40;42.60;;;;;;5526312;25;21062;-65
2024/04/11 02:02:29;;;;;;;6.20;3.47;;;7.50;42.70;;;;;;5527135;25;20456;-65
2024/04/11 02:04:58;;;;;;;10.20;3.27;;;7.50;42.70;;;;;;5527010;25;20531;-65
2024/04/11 02:07:26;;;;;;;9.47;3.10;;;7.60;42.80;;;;;;5526915;25;20527;-66
2024/04/11 02:09:56;;;;;;;7.40;2.50;;;7.60;42.80;;;;;;5526490;25;21094;-65
2024/04/11 02:12:25;;;;;;;9.50;2.63;;;7.70;42.80;;;;;;5511367;26;20565;-65
2024/04/11 02:14:56;;;;;;;9.13;2.60;;;7.80;42.90;;;;;;5527047;25;20464;-65
2024/04/11 02:17:21;;;;;;;6.80;2.50;;;7.90;43.00;;;;;;5520181;25;20506;-66
2024/04/11 02:19:50;;;;;;;7.30;2.63;;;8.00;42.90;;;;;;5489364;26;21084;-65
2024/04/11 02:22:17;;;;;;;7.63;2.43;;;8.10;43.10;;;;;;5489950;26;20387;-65
2024/04/11 02:24:46;;;;;;;7.57;2.70;;;8.20;42.30;;;;;;5489949;26;20466;-65
2024/04/11 02:27:12;;;;;;;5.77;2.03;;;8.30;34.50;;;;;;5489540;26;20470;-65
2024/04/11 02:29:40;;;;;;;6.60;1.93;;;8.40;27.60;;;;;;5489838;26;20519;-65
2024/04/11 02:32:09;;;;;;;9.50;2.80;;;8.50;26.70;;;;;;5523111;26;20480;-66
2024/04/11 02:34:38;;;;;;;8.43;2.27;;;8.50;26.90;;;;;;5526599;25;20460;-65
2024/04/11 02:37:06;;;;;;;13.20;2.77;;;8.50;28.40;;;;;;5526761;25;20551;-65
2024/04/11 02:39:34;;;;;;;9.80;2.90;;;8.50;30.00;;;;;;5526465;25;20566;-65
2024/04/11 02:42:00;;;;;;;5.50;2.00;;;8.40;33.90;;;;;;5493987;25;20616;-65
2024/04/11 02:44:31;;;;;;;9.13;2.50;;;8.40;34.60;;;;;;5497560;26;21128;-66
2024/04/11 02:47:01;;;;;;;7.10;2.17;;;8.30;35.10;;;;;;5526335;25;20500;-65
2024/04/11 02:49:32;;;;;;;8.23;3.00;;;8.30;34.50;;;;;;5526639;25;20460;-65
2024/04/11 02:51:59;;;;;;;11.47;2.60;;;8.30;29.60;;;;;;5525761;25;21320;-65
2024/04/11 02:54:28;;;;;;;9.53;2.10;;;8.30;30.90;;;;;;5526358;25;20585;-65
2024/04/11 02:56:53;;;;;;;7.00;1.70;;;8.30;26.60;;;;;;5496172;25;20837;-65
2024/04/11 02:59:22;;;;;;;15.43;3.17;;;8.40;26.70;;;;;;5510889;26;20566;-65
2024/04/11 03:01:49;;;;;;;11.03;3.13;;;8.40;26.70;;;;;;5525753;25;20327;-65
2024/04/11 03:04:17;;;;;;;11.03;2.90;;;8.40;28.20;;;;;;5526196;25;20823;-64
2024/04/11 03:06:45;;;;;;;7.70;3.67;;;8.40;26.80;;;;;;5526200;25;20227;-65
2024/04/11 03:09:14;;;;;;;6.17;2.80;;;8.40;29.40;;;;;;5526371;25;20468;-65
2024/04/11 03:11:40;;;;;;;8.43;2.77;;;8.50;26.80;;;;;;5525791;25;20461;-65
2024/04/11 03:14:08;;;;;;;14.13;4.80;;;8.50;26.80;;;;;;5526340;25;20464;-65
2024/04/11 03:16:34;;;;;;;8.40;3.07;;;8.50;34.60;;;;;;5526158;25;20322;-65
2024/04/11 03:19:02;;;;;;;11.97;3.60;;;8.40;34.70;;;;;;5526044;25;20460;-66
2024/04/11 03:21:29;;;;;;;10.10;3.70;;;8.40;34.60;;;;;;5517929;25;20336;-65
2024/04/11 03:24:00;;;;;;;9.40;3.13;;;8.40;34.50;;;;;;5489781;26;20548;-65
2024/04/11 03:26:26;;;;;;;8.70;3.10;;;8.50;26.70;;;;;;5512526;26;20469;-65
2024/04/11 03:28:56;;;;;;;12.50;3.10;;;8.60;26.80;;;;;;5526334;25;21038;-65
2024/04/11 03:31:21;;;;;;;7.40;2.40;;;8.60;26.80;;;;;;5510621;26;20452;-65
2024/04/11 03:33:50;;;;;;;7.93;2.20;;;8.60;26.80;;;;;;5525843;25;20456;-65
2024/04/11 03:36:19;;;;;;;7.60;2.30;;;8.70;26.80;;;;;;5525777;25;20765;-65
2024/04/11 03:38:48;;;;;;;9.60;3.00;;;8.70;26.80;;;;;;5525758;25;20520;-65
2024/04/11 03:41:18;;;;;;;11.47;2.57;;;8.70;26.90;;;;;;5520727;25;20476;-65
2024/04/11 03:43:47;;;;;;;11.40;2.80;;;8.70;26.90;;;;;;5488599;26;20532;-65
2024/04/11 03:46:18;;;;;;;4.90;2.00;;;8.70;26.90;;;;;;5488477;26;20462;-66
2024/04/11 03:48:51;;;;;;;13.87;3.33;;;8.70;30.50;;;;;;5489067;26;20461;-65
2024/04/11 03:51:18;;;;;;;8.93;2.87;;;8.70;31.40;;;;;;5524312;26;20565;-64
2024/04/11 03:53:48;;;;;;;7.60;2.20;;;8.80;31.80;;;;;;5525528;25;20512;-65
2024/04/11 03:56:18;;;;;;;9.23;2.50;;;8.80;34.90;;;;;;5521018;25;20641;-65
2024/04/11 03:58:47;;;;;;;8.10;2.33;;;8.80;34.90;;;;;;5489118;26;20469;-65
2024/04/11 04:01:14;;;;;;;8.37;3.10;;;9.00;35.10;;;;;;5493222;26;20469;-65
2024/04/11 04:03:43;;;;;;;5.10;2.40;;;8.80;42.30;;;;;;5525622;25;20522;-65
2024/04/11 04:06:10;;;;;;;4.70;2.50;;;8.80;43.80;;;;;;5525512;25;21258;-65
2024/04/11 04:08:40;;;;;;;8.73;2.73;;;8.80;35.30;;;;;;5525423;25;20452;-65
2024/04/11 04:11:06;;;;;;;7.87;3.90;;;8.80;35.60;;;;;;5524662;25;20563;-65
2024/04/11 04:13:39;;;;;;;7.00;3.23;;;8.80;39.60;;;;;;5516285;25;20466;-65
2024/04/11 04:16:08;;;;;;;5.97;2.30;;;8.80;43.30;;;;;;5488438;26;20809;-65
2024/04/11 04:18:38;;;;;;;8.83;6.40;;;8.80;43.60;;;;;;5488349;26;20558;-65
2024/04/11 04:21:04;;;;;;;10.80;8.80;;;8.80;40.00;;;;;;5487765;26;20506;-65
2024/04/11 04:23:33;;;;;;;10.90;8.40;;;8.80;43.60;;;;;;5512396;26;20460;-64
2024/04/11 04:26:00;;;;;;;9.93;3.33;;;8.80;43.80;;;;;;5525152;25;20574;-65
2024/04/11 04:28:30;;;;;;;6.50;2.97;;;8.80;43.80;;;;;;5525237;25;20512;-66
2024/04/11 04:31:12;;;;;;;10.90;3.83;;;8.90;43.90;;;;;;5524374;25;20472;-65
2024/04/11 04:33:40;;;;;;;14.53;4.13;;;8.80;43.80;;;;;;5525075;25;20476;-66
2024/04/11 04:36:07;;;;;;;9.97;4.43;;;8.80;43.80;;;;;;5523855;25;20508;-65
2024/04/11 04:38:37;;;;;;;11.43;3.20;;;8.80;43.80;;;;;;5515506;25;20881;-65
2024/04/11 04:41:03;;;;;;;9.80;2.80;;;8.80;43.80;;;;;;5504561;26;20464;-66
2024/04/11 04:43:32;;;;;;;5.67;2.47;;;8.80;43.80;;;;;;5525038;25;20468;-66
2024/04/11 04:46:01;;;;;;;9.17;3.00;;;8.80;43.80;;;;;;5524816;25;20444;-65
2024/04/11 04:48:30;;;;;;;8.13;3.07;;;8.80;43.80;;;;;;5516639;25;20529;-63
2024/04/11 04:50:56;;;;;;;12.10;2.70;;;8.80;43.80;;;;;;5489628;26;20518;-65
2024/04/11 04:53:25;;;;;;;7.70;2.40;;;8.80;43.80;;;;;;5513596;25;20457;-65
2024/04/11 04:55:52;;;;;;;10.80;3.40;;;8.80;43.70;;;;;;5508630;25;20598;-65
2024/04/11 04:58:20;;;;;;;5.60;2.23;;;8.80;43.70;;;;;;5524301;25;20501;-64
2024/04/11 05:00:47;;;;;;;6.23;2.17;;;8.80;43.60;;;;;;5510911;25;20589;-65
2024/04/11 05:03:18;;;;;;;7.00;2.57;;;8.80;43.80;;;;;;5486687;26;20526;-65
2024/04/11 05:05:44;;;;;;;8.87;2.90;;;8.80;43.70;;;;;;5502428;26;21067;-65
2024/04/11 05:08:14;;;;;;;6.50;2.30;;;8.80;43.70;;;;;;5520144;25;20554;-65
2024/04/11 05:10:40;;;;;;;9.77;2.80;;;8.80;43.70;;;;;;5485586;26;20506;-65
2024/04/11 05:13:09;;;;;;;9.17;2.73;;;8.90;43.60;;;;;;5509919;26;20535;-66
2024/04/11 05:15:36;;;;;;;9.87;3.03;;;8.90;43.90;;;;;;5510574;25;20456;-65
2024/04/11 05:18:04;;;;;;;7.13;2.93;;;8.90;43.80;;;;;;5506941;25;20537;-65
2024/04/11 05:20:33;;;;;;;9.33;3.30;;;9.00;43.90;;;;;;5497522;26;20538;-65
2024/04/11 05:23:06;;;;;;;10.77;2.90;;;9.10;44.10;;;;;;5522873;25;20675;-65
2024/04/11 05:25:33;;;;;;;6.80;2.30;;;9.20;44.10;;;;;;5522256;25;20457;-65
2024/04/11 05:28:07;;;;;;;11.80;3.90;;;9.30;41.90;;;;;;5495105;25;21092;-65
2024/04/11 05:30:33;;;;;;;11.63;2.37;;;9.40;43.70;;;;;;5523476;25;20459;-65
2024/04/11 05:33:04;;;;;;;7.63;2.47;;;9.50;43.10;;;;;;5508620;25;20468;-66
2024/04/11 05:35:32;;;;;;;6.17;1.87;;;9.70;30.80;;;;;;5504219;25;20462;-65
2024/04/11 05:38:01;;;;;;;5.90;2.00;;;9.80;27.60;;;;;;5518887;26;20452;-65
2024/04/11 05:40:27;;;;;;;6.70;2.10;;;10.00;26.90;;;;;;5494228;26;20461;-65
2024/04/11 05:42:56;;;;;;;11.33;2.57;;;10.20;27.10;;;;;;5523235;25;21140;-65
2024/04/11 05:45:23;;;;;;;5.73;2.10;;;10.20;27.10;;;;;;5508850;26;20609;-65
2024/04/11 05:47:52;;;;;;;9.07;2.67;;;10.30;26.70;;;;;;5525168;25;20879;-65
2024/04/11 05:50:19;;;;;;;8.87;2.10;;;10.40;21.70;;;;;;5507192;25;20814;-65
2024/04/11 05:52:50;;;;;;;9.17;2.10;;;10.50;26.00;;;;;;5505873;26;20462;-65
2024/04/11 05:55:16;;;;;;;9.13;2.30;;;10.50;27.20;;;;;;5527325;25;20804;-66
2024/04/11 05:57:45;;;;;;;6.33;2.23;;;10.50;26.70;;;;;;5515376;25;20584;-66
2024/04/11 06:00:12;;;;;;;7.77;3.43;;;10.60;27.30;;;;;;5488758;26;20469;-65
2024/04/11 06:02:41;;;;;;;5.73;1.90;;;10.60;27.10;;;;;;5490297;26;20519;-65
2024/04/11 06:05:07;;;;;;;8.60;1.90;;;10.60;27.30;;;;;;5490306;26;20828;-66
2024/04/11 06:07:39;;;;;;;8.87;2.17;;;10.60;27.20;;;;;;5500305;26;20541;-65
2024/04/11 06:10:11;;;;;;;9.73;2.23;;;10.70;26.70;;;;;;5526291;25;20468;-65
2024/04/11 06:12:40;;;;;;;5.97;2.10;;;10.70;23.80;;;;;;5526812;25;20464;-65
2024/04/11 06:15:07;;;;;;;7.60;2.23;;;10.70;23.60;;;;;;5527223;25;20510;-65
2024/04/11 06:17:36;;;;;;;9.87;2.07;;;10.70;20.40;;;;;;5527070;25;21060;-65
2024/04/11 06:20:03;;;;;;;9.50;2.00;;;10.70;21.40;;;;;;5526186;25;20512;-65
2024/04/11 06:22:35;;;;;;;7.23;2.50;;;10.80;21.00;;;;;;5526872;25;20499;-65
2024/04/11 06:25:01;;;;;;;11.33;2.13;;;10.80;20.50;;;;;;5493553;25;20446;-66
2024/04/11 06:27:32;;;;;;;6.90;2.17;;;10.80;21.50;;;;;;5501067;26;21033;-65
2024/04/11 06:29:58;;;;;;;6.37;1.97;;;10.90;23.80;;;;;;5525917;25;20239;-68
2024/04/11 06:32:29;;;;;;;6.77;2.10;;;10.90;20.50;;;;;;5511670;25;20569;-64
2024/04/11 06:34:57;;;;;;;10.63;2.10;;;10.90;20.50;;;;;;5510857;25;20450;-64
2024/04/11 06:37:25;;;;;;;8.93;2.13;;;11.00;20.60;;;;;;5489925;26;20515;-66
2024/04/11 06:39:51;;;;;;;9.67;2.20;;;11.00;20.60;;;;;;5489144;26;20597;-64
2024/04/11 06:42:19;;;;;;;5.20;1.83;;;11.00;20.60;;;;;;5501927;26;20464;-65
2024/04/11 06:44:48;;;;;;;10.20;1.90;;;11.00;20.60;;;;;;5517511;26;20332;-65
2024/04/11 06:47:18;;;;;;;6.90;2.00;;;11.10;20.60;;;;;;5520555;25;20520;-64
2024/04/11 06:49:46;;;;;;;7.03;1.60;;;11.10;20.60;;;;;;5504859;26;20520;-62
2024/04/11 06:52:16;;;;;;;12.60;2.40;;;11.20;20.60;;;;;;5494422;26;20541;-65
2024/04/11 06:54:46;;;;;;;6.93;2.00;;;11.20;20.70;;;;;;5526386;25;21015;-65
2024/04/11 06:57:17;;;;;;;8.00;2.07;;;11.30;20.80;;;;;;5500786;25;21022;-65
2024/04/11 06:59:44;;;;;;;6.63;2.30;;;11.40;20.80;;;;;;5522495;25;20448;-65
2024/04/11 07:02:15;;;;;;;21.77;2.73;;;11.50;20.50;;;;;;5525749;25;20460;-66
2024/04/11 07:04:43;;;;;;;9.97;2.30;;;11.60;13.70;;;;;;5526749;25;20460;-65
2024/04/11 07:07:12;;;;;;;7.80;2.63;;;11.70;20.90;;;;;;5526547;25;20520;-66
2024/04/11 07:09:38;;;;;;;10.00;2.70;;;11.80;21.10;;;;;;5515862;25;20454;-66
2024/04/11 07:12:10;;;;;;;14.60;2.93;;;11.90;20.30;;;;;;5488658;26;20535;-65
2024/04/11 07:14:37;;;;;;;7.53;2.03;;;12.00;13.90;;;;;;5507966;26;20258;-66
2024/04/11 07:17:11;;;;;;;6.70;2.27;;;12.00;13.90;;;;;;5523312;25;20866;-66
2024/04/11 07:19:42;;;;;;;8.83;3.53;;;12.10;14.00;;;;;;5500115;26;20465;-65
2024/04/11 07:22:16;;;;;;;9.37;2.27;;;12.10;14.00;;;;;;5502511;25;21083;-65
2024/04/11 07:24:43;;;;;;;8.10;2.40;;;12.20;14.10;;;;;;5519898;25;21007;-65
2024/04/11 07:27:17;;;;;;;10.10;2.70;;;12.30;14.20;;;;;;5508864;25;20474;-66
2024/04/11 07:29:44;;;;;;;11.00;2.90;;;12.50;14.30;;;;;;5489674;26;20457;-66
2024/04/11 07:32:13;;;;;;;8.97;2.50;;;12.60;14.40;;;;;;5488838;26;20521;-66
2024/04/11 07:34:41;;;;;;;8.87;2.30;;;12.70;14.40;;;;;;5488563;26;20510;-66
2024/04/11 07:37:13;;;;;;;10.53;2.77;;;12.90;14.60;;;;;;5505051;26;20512;-66
2024/04/11 07:39:39;;;;;;;9.47;3.13;;;13.10;14.70;;;;;;5525077;25;20517;-65
2024/04/11 07:44:49;;;;;;;9.63;2.78;;;13.20;14.80;;;;;;5505249;25;20396;-65
2024/04/11 07:47:16;;;;;;;12.43;2.85;;;13.30;14.90;;;;;;5520661;25;20389;-65
2024/04/11 07:49:50;;;;;;;6.40;2.10;;;13.40;14.90;;;;;;5523092;25;20235;-64
2024/04/11 07:52:16;;;;;;;8.50;2.10;;;13.50;15.00;;;;;;5488009;25;20547;-65
2024/04/11 07:54:45;;;;;;;9.67;2.60;;;13.50;14.90;;;;;;5486920;26;20465;-65
2024/04/11 07:57:11;;;;;;;9.83;2.50;;;13.50;14.90;;;;;;5486679;26;20228;-65
2024/04/11 07:59:40;;;;;;;7.80;2.10;;;13.60;8.60;;;;;;5514259;26;20553;-66
2024/04/11 08:02:06;;;;;;;11.53;2.70;;;13.70;11.90;;;;;;5491715;25;20458;-66
2024/04/11 08:04:34;;;;;;;12.43;2.40;;;13.70;11.10;;;;;;5488426;26;20917;-66
2024/04/11 08:07:03;;;;;;;6.80;2.37;;;13.70;7.60;;;;;;5519983;26;20746;-65
2024/04/11 08:09:44;;;;;;;7.90;2.40;;;13.90;7.80;;;;;;5524473;25;20507;-65
2024/04/11 08:12:10;;;;;;;8.23;2.17;;;14.00;7.90;;;;;;5524483;26;20452;-65
2024/04/11 08:14:38;;;;;;;7.10;2.40;;;14.20;7.70;;;;;;5525231;25;20468;-66
2024/04/11 08:17:04;;;;;;;10.33;2.27;;;14.30;8.10;;;;;;5524956;25;20325;-65
2024/04/11 08:19:33;;;;;;;13.33;5.23;;;14.50;8.20;;;;;;5525848;25;20570;-66
2024/04/11 08:22:01;;;;;;;17.20;2.73;;;14.60;8.30;;;;;;5524087;25;20480;-66
2024/04/11 08:24:32;;;;;;;7.87;2.83;;;14.80;8.50;;;;;;5496512;26;20472;-66
2024/04/11 08:26:58;;;;;;;11.13;2.30;;;14.80;1.00;;;;;;5525290;25;20524;-65
2024/04/11 08:29:27;;;;;;;8.47;2.50;;;14.90;8.50;;;;;;5525255;25;20920;-66
2024/04/11 08:31:52;;;;;;;8.20;4.57;;;15.00;8.60;;;;;;5524777;25;20239;-65
2024/04/11 08:34:22;;;;;;;8.63;2.47;;;14.90;1.00;;;;;;5524818;25;20570;-65
2024/04/11 08:36:47;;;;;;;6.90;2.30;;;14.90;1.00;;;;;;5511782;25;20262;-65
2024/04/11 08:39:16;;;;;;;11.67;3.50;;;14.80;1.00;;;;;;5487842;26;20457;-66
2024/04/11 08:41:46;;;;;;;8.13;2.27;;;14.80;1.00;;;;;;5514566;26;20577;-66
2024/04/11 08:44:15;;;;;;;11.60;2.13;;;14.80;1.50;;;;;;5524327;25;20464;-66
2024/04/11 08:46:43;;;;;;;14.63;2.53;;;14.70;1.00;;;;;;5524594;25;20484;-65
2024/04/11 08:49:13;;;;;;;9.03;2.70;;;14.60;4.70;;;;;;5511275;25;20452;-62
2024/04/11 08:51:39;;;;;;;9.33;2.60;;;14.70;1.00;;;;;;5496764;26;20465;-66
2024/04/11 08:54:12;;;;;;;11.90;2.13;;;14.70;1.00;;;;;;5507080;25;20520;-65
2024/04/11 08:56:38;;;;;;;11.77;2.53;;;14.80;1.00;;;;;;5519160;25;20527;-66
2024/04/11 08:59:10;;;;;;;11.53;3.10;;;15.00;1.00;;;;;;5516304;25;20464;-66
2024/04/11 09:01:36;;;;;;;13.52;3.10;;;15.00;1.00;;;;;;5510759;26;20390;-67
2024/04/11 09:04:04;;;;;;;6.77;2.27;;;15.10;1.00;;;;;;5517887;26;20227;-67
2024/04/11 09:06:33;;;;;;;10.47;2.53;;;15.10;1.00;;;;;;5511914;26;20269;-67
2024/04/11 09:09:07;;;;;;;8.10;2.23;;;15.20;1.10;;;;;;5507987;25;20508;-66
2024/04/11 09:11:33;;;;;;;8.53;2.03;;;15.20;1.10;;;;;;5508947;26;20503;-67
2024/04/11 09:14:01;;;;;;;17.50;2.73;;;15.20;1.10;;;;;;5524497;25;20464;-66
2024/04/11 09:16:33;;;;;;;9.50;2.73;;;15.50;5.40;;;;;;5521349;25;20858;-67
2024/04/11 09:19:07;;;;;;;7.93;2.23;;;15.70;5.40;;;;;;5505683;25;20477;-67
2024/04/11 09:21:33;;;;;;;12.27;2.13;;;15.80;2.40;;;;;;5511542;26;20452;-66
2024/04/11 09:24:01;;;;;;;10.47;2.30;;;16.00;1.70;;;;;;5523859;25;20584;-66
2024/04/11 09:26:27;;;;;;;8.00;2.20;;;16.20;1.80;;;;;;5526546;26;20275;-67
2024/04/11 09:28:57;;;;;;;13.63;4.07;;;16.30;1.90;;;;;;5527688;25;20569;-66
2024/04/11 09:31:24;;;;;;;9.20;1.87;;;15.90;1.60;;;;;;5525909;25;20224;-67
2024/04/11 09:33:57;;;;;;;16.80;4.20;;;15.80;1.50;;;;;;5517080;25;20543;-66
2024/04/11 09:36:27;;;;;;;11.07;2.00;;;15.70;1.40;;;;;;5519910;26;20513;-66
2024/04/11 09:39:05;;;;;;;17.33;1.93;;;15.60;2.80;;;;;;5499402;25;20457;-66
2024/04/11 09:41:34;;;;;;;11.67;2.23;;;15.50;1.30;;;;;;5516893;26;21002;-67
2024/04/11 09:44:06;;;;;;;11.13;2.70;;;15.50;2.50;;;;;;5506713;25;20573;-65
2024/04/11 09:46:40;;;;;;;8.27;1.73;;;15.40;1.20;;;;;;5502493;26;20452;-67
2024/04/11 09:49:13;;;;;;;7.77;2.20;;;15.30;1.20;;;;;;5510838;25;20573;-67
2024/04/11 09:51:41;;;;;;;7.63;2.00;;;15.30;3.00;;;;;;5512979;26;20471;-67
2024/04/11 09:54:13;;;;;;;10.53;1.87;;;15.30;1.20;;;;;;5517023;25;20806;-67
2024/04/11 09:56:44;;;;;;;12.03;3.87;;;15.40;1.30;;;;;;5516888;26;20590;-66
2024/04/11 09:59:13;;;;;;;10.73;2.33;;;15.40;2.00;;;;;;5512160;25;20571;-66
2024/04/11 10:01:38;;;;;;;9.20;2.70;;;15.50;1.50;;;;;;5526368;25;20469;-66
2024/04/11 10:04:21;;;;;;;9.97;2.23;;;15.60;4.90;;;;;;5524717;25;20589;-65
2024/04/11 10:06:52;;;;;;;10.20;2.67;;;15.80;5.90;;;;;;5518662;26;20505;-67
2024/04/11 10:09:20;;;;;;;15.13;2.83;;;16.00;1.70;;;;;;5513111;25;20456;-66
2024/04/11 10:11:51;;;;;;;8.40;2.17;;;16.10;1.70;;;;;;5500319;25;20468;-66
2024/04/11 10:14:20;;;;;;;9.93;3.10;;;16.10;1.70;;;;;;5520489;26;20468;-66
2024/04/11 10:16:53;;;;;;;12.18;2.70;;;16.20;1.80;;;;;;5510781;25;20730;-66
2024/04/11 10:19:31;;;;;;;12.33;3.20;;;16.50;2.00;;;;;;5517432;25;20351;-66
2024/04/11 10:22:04;;;;;;;11.40;2.53;;;16.50;2.00;;;;;;5521993;25;20508;-65
2024/04/11 10:24:34;;;;;;;8.63;2.20;;;16.50;2.00;;;;;;5522548;25;20586;-66
2024/04/11 10:27:09;;;;;;;10.57;3.20;;;16.40;1.70;;;;;;5515796;25;20458;-66
2024/04/11 10:29:43;;;;;;;9.37;2.13;;;16.20;1.80;;;;;;5525492;25;20570;-66
2024/04/11 10:32:13;;;;;;;16.57;1.90;;;16.30;1.90;;;;;;5522442;25;21029;-65
2024/04/11 10:34:48;;;;;;;11.37;2.77;;;16.30;1.90;;;;;;5510246;26;20473;-66
2024/04/11 10:37:23;;;;;;;7.97;2.40;;;16.30;1.90;;;;;;5517593;25;20464;-66
2024/04/11 10:39:54;;;;;;;8.67;3.53;;;16.40;1.90;;;;;;5503736;25;20467;-66
2024/04/11 10:42:27;;;;;;;5.97;1.63;;;16.50;2.00;;;;;;5522073;25;20513;-65
2024/04/11 10:44:57;;;;;;;7.00;1.93;;;16.60;2.10;;;;;;5513960;26;20468;-66
2024/04/11 10:47:25;;;;;;;10.23;2.67;;;16.90;2.30;;;;;;5508285;26;21128;-66
2024/04/11 10:49:56;;;;;;;12.50;2.20;;;16.80;2.20;;;;;;5496088;26;20577;-66
2024/04/11 10:52:24;;;;;;;11.37;1.93;;;17.00;2.40;;;;;;5522094;26;20467;-66
2024/04/11 10:55:12;;;;;;;6.60;1.80;;;16.80;2.30;;;;;;5508041;25;20578;-66
2024/04/11 10:57:40;;;;;;;9.60;1.90;;;17.20;6.30;;;;;;5515747;26;20452;-66
2024/04/11 11:00:12;;;;;;;5.03;1.60;;;17.20;2.50;;;;;;5526495;25;21084;-66
2024/04/11 11:02:39;;;;;;;5.50;1.63;;;17.20;2.50;;;;;;5527185;25;20457;-66
2024/04/11 11:05:10;;;;;;;8.33;1.87;;;17.00;7.10;;;;;;5527160;25;20535;-66
2024/04/11 11:07:37;;;;;;;6.70;1.50;;;16.90;8.00;;;;;;5526528;25;20460;-65
2024/04/11 11:10:13;;;;;;;6.13;1.70;;;16.70;9.80;;;;;;5525547;25;20468;-66
2024/04/11 11:12:39;;;;;;;7.00;2.30;;;16.80;9.90;;;;;;5526153;25;21070;-66
2024/04/11 11:15:11;;;;;;;5.20;1.53;;;16.70;9.90;;;;;;5523914;25;20469;-66
2024/04/11 11:17:39;;;;;;;7.20;1.70;;;16.70;9.80;;;;;;5489620;26;20269;-66
2024/04/11 11:20:13;;;;;;;8.63;1.90;;;16.80;9.90;;;;;;5488842;26;20458;-66
2024/04/11 11:22:40;;;;;;;6.87;2.20;;;16.70;9.80;;;;;;5489340;26;20597;-66
2024/04/11 11:25:10;;;;;;;7.13;1.53;;;17.00;10.00;;;;;;5492163;26;20530;-66
2024/04/11 11:27:36;;;;;;;7.23;1.87;;;17.10;10.10;;;;;;5526052;25;21039;-66
2024/04/11 11:30:06;;;;;;;6.40;1.50;;;17.00;10.10;;;;;;5525535;25;20524;-66
2024/04/11 11:32:35;;;;;;;10.37;1.63;;;17.00;10.00;;;;;;5526546;25;20457;-66
2024/04/11 11:35:05;;;;;;;7.70;1.87;;;16.70;9.90;;;;;;5525945;25;20511;-66
2024/04/11 11:37:35;;;;;;;8.10;1.70;;;16.60;9.90;;;;;;5525984;25;20869;-66
2024/04/11 11:40:37;;;;;;;9.23;1.80;;;16.70;14.50;;;;;;5525578;25;20464;-66
2024/04/11 11:42:53;;;;;;;6.33;1.53;;;16.50;10.50;;;;;;5525636;26;20813;-65
2024/04/11 11:45:29;;;;;;;8.40;1.87;;;16.40;17.00;;;;;;5523576;25;20509;-64
2024/04/11 11:47:57;;;;;;;5.50;2.40;;;16.60;17.20;;;;;;5526084;25;20277;-66
2024/04/11 11:50:35;;;;;;;4.93;1.27;;;16.70;17.30;;;;;;5524957;25;20460;-66
2024/04/11 11:53:24;;;;;;;6.10;2.37;;;16.60;17.00;;;;;;5509275;25;20568;-65
2024/04/11 11:55:57;;;;;;;6.90;1.57;;;16.70;16.90;;;;;;5517729;26;20572;-66
2024/04/11 11:58:23;;;;;;;6.67;1.77;;;17.00;17.10;;;;;;5518755;25;20502;-66
2024/04/11 12:00:59;;;;;;;8.17;2.03;;;17.10;10.10;;;;;;5501873;26;20573;-66
2024/04/11 12:03:29;;;;;;;8.00;2.63;;;17.40;10.40;;;;;;5511177;26;20471;-65
2024/04/11 12:05:58;;;;;;;7.00;1.73;;;17.30;10.30;;;;;;5525336;25;21160;-66
2024/04/11 12:08:27;;;;;;;8.17;2.00;;;17.50;11.50;;;;;;5518108;25;21130;-65
2024/04/11 12:11:14;;;;;;;6.80;2.00;;;17.60;10.50;;;;;;5517812;26;20546;-66
2024/04/11 12:13:44;;;;;;;7.72;2.10;;;17.70;10.50;;;;;;5513679;25;20479;-66
2024/04/11 12:16:15;;;;;;;8.63;2.80;;;18.10;10.80;;;;;;5510803;26;20235;-66
2024/04/11 12:18:42;;;;;;;6.23;2.10;;;17.70;10.10;;;;;;5512099;25;20468;-66
2024/04/11 12:21:13;;;;;;;7.70;2.67;;;17.40;10.40;;;;;;5516668;25;20476;-66
2024/04/11 12:23:42;;;;;;;8.97;2.10;;;17.20;10.20;;;;;;5524994;25;20943;-65
2024/04/11 12:26:12;;;;;;;6.50;2.30;;;17.20;10.20;;;;;;5524652;25;20460;-66
2024/04/11 12:28:38;;;;;;;7.77;2.17;;;17.30;10.40;;;;;;5508802;25;20457;-66
2024/04/11 12:31:07;;;;;;;9.73;1.77;;;17.30;10.30;;;;;;5513837;25;20445;-66
2024/04/11 12:33:34;;;;;;;8.23;2.40;;;17.90;10.70;;;;;;5524827;25;20278;-66
2024/04/11 12:36:09;;;;;;;6.73;1.87;;;18.60;11.20;;;;;;5503957;25;20516;-66
2024/04/11 12:38:39;;;;;;;8.85;2.20;;;19.30;6.60;;;;;;5509602;26;20351;-66
2024/04/11 12:41:13;;;;;;;8.63;1.60;;;19.50;4.20;;;;;;5514896;25;20219;-67
2024/04/11 12:43:39;;;;;;;7.63;2.23;;;19.60;4.20;;;;;;5524045;25;20517;-67
2024/04/11 12:46:09;;;;;;;6.57;2.53;;;19.80;4.30;;;;;;5509609;25;20461;-67
2024/04/11 12:48:35;;;;;;;7.20;2.23;;;20.10;4.60;;;;;;5516213;25;20446;-67
2024/04/11 12:51:04;;;;;;;8.57;1.90;;;20.20;3.40;;;;;;5522777;25;20516;-66
2024/04/11 12:53:31;;;;;;;8.13;1.87;;;19.90;2.60;;;;;;5514178;26;20236;-67
2024/04/11 12:56:00;;;;;;;6.33;2.10;;;19.20;4.70;;;;;;5494236;25;20465;-67
2024/04/11 12:58:31;;;;;;;8.03;2.00;;;19.00;3.80;;;;;;5523562;25;20514;-67
2024/04/11 13:01:03;;;;;;;7.30;2.20;;;18.90;3.70;;;;;;5518692;26;20543;-67
2024/04/11 13:03:52;;;;;;;7.27;1.77;;;18.90;3.70;;;;;;5520525;25;20558;-67